Latest Weather Observations for Launceston Airport

IDT60801

Issued at 10:51 am EST Tuesday 26 May 2020 (issued every 10 minutes, with the page automatically refreshed every 10 minutes)

About weather observations | Map of weather stations | Latest weather observations for TAS | Other Formats
Station Details ID: 091311 Name: LAUNCESTON AIRPORT Lat: -41.55 Lon: 147.22 Height: 166.9 m
Data from the previous 72 hours. | See also: Recent months at Launceston Airport
Date/Time
EST
Temp
°C
App
Temp
°C
Dew
Point
°C
Rel
Hum
%
Delta-T
°C
Wind Press
QNH
hPa
Press
MSL
hPa
Rain since
9am
mm
Dir  Spd
km/h
Gust
km/h
Spd
kts
Gust
kts
26/10:30am 6.6 4.1 3.8 82 1.2 SE 6 9 3 5 1029.2 1029.5 0.0
26/10:00am 6.0 3.5 3.8 86 0.9 SW 6 9 3 5 1029.3 1029.6 0.0
26/09:30am 5.6 3.0 4.1 90 0.6 SSW 7 9 4 5 1029.4 1029.7 0.0
26/09:00am 5.4 2.4 3.9 90 0.6 SSW 9 11 5 6 1029.4 1029.7 0.0
26/08:30am 5.4 3.8 4.4 93 0.4 WSW 2 7 1 4 1029.3 1029.6 0.0
26/08:00am 4.9 3.6 4.0 94 0.4 CALM 0 0 0 0 1029.2 1029.5 0.0
26/07:30am 4.3 2.9 3.4 94 0.4 CALM 0 0 0 0 1028.9 1029.2 0.0
26/07:00am 4.0 2.5 3.1 94 0.4 CALM 0 0 0 0 1028.9 1029.2 0.0
26/06:30am 4.1 1.9 3.1 93 0.4 WSW 4 7 2 4 1028.9 1029.2 0.0
26/06:00am 4.4 2.9 3.2 92 0.5 CALM 0 0 0 0 1028.9 1029.2 0.0
26/05:30am 4.8 2.3 3.6 92 0.5 WSW 6 7 3 4 1028.7 1029.0 0.0
26/05:00am 4.8 2.3 3.6 92 0.5 SW 6 7 3 4 1028.6 1028.9 0.0
26/04:30am 4.7 2.2 3.5 92 0.5 SW 6 7 3 4 1028.5 1028.8 0.0
26/04:00am 4.8 1.7 3.6 92 0.5 SSW 9 11 5 6 1028.5 1028.8 0.0
26/03:30am 4.7 2.0 3.5 92 0.5 SSW 7 9 4 5 1028.5 1028.8 0.0
26/03:00am 4.7 2.2 3.5 92 0.5 SSW 6 7 3 4 1028.5 1028.8 0.0
26/02:30am 4.8 2.1 3.8 93 0.4 SSW 7 9 4 5 1028.6 1028.9 0.0
26/02:00am 4.4 1.7 3.5 94 0.4 S 7 9 4 5 1028.6 1028.9 0.0
26/01:30am 4.3 1.5 3.3 93 0.4 SSW 7 9 4 5 1028.8 1029.1 0.0
26/01:00am 4.6 1.6 3.9 95 0.3 SW 9 11 5 6 1029.0 1029.3 0.0
26/12:30am 4.0 2.6 3.3 95 0.3 CALM 0 0 0 0 1028.8 1029.1 0.0
26/12:00am 3.8 2.3 3.1 95 0.3 CALM 0 0 0 0 1028.8 1029.1 0.0
 
Date/Time
EST
Temp
°C
App
Temp
°C
Dew
Point
°C
Rel
Hum
%
Delta-T
°C
Wind Press
QNH
hPa
Press
MSL
hPa
Rain since
9am
mm
Dir  Spd
km/h
Gust
km/h
Spd
kts
Gust
kts
25/11:30pm 3.5 0.8 2.8 95 0.3 SW 6 9 3 5 1028.9 1029.2 0.0
25/11:00pm 3.1 0.2 2.4 95 0.3 WSW 7 9 4 5 1029.1 1029.4 0.0
25/10:30pm 3.4 -0.7 2.5 94 0.4 SW 13 15 7 8 1028.9 1029.2 0.0
25/10:00pm 3.4 -0.3 2.1 91 0.5 SSW 11 13 6 7 1029.0 1029.3 0.0
25/09:30pm 4.4 1.5 2.8 89 0.7 SSE 7 11 4 6 1029.0 1029.3 0.0
25/09:00pm 5.2 3.0 3.4 88 0.7 SSE 4 7 2 4 1028.9 1029.2 0.0
25/08:30pm 6.3 4.9 3.8 84 1.1 CALM 0 0 0 0 1028.9 1029.2 0.0
25/08:00pm 6.9 4.2 3.9 81 1.3 SE 7 11 4 6 1028.7 1029.0 0.0
25/07:30pm 7.3 4.7 4.4 82 1.3 SSW 7 11 4 6 1028.5 1028.8 0.0
25/07:00pm 7.2 4.6 4.0 80 1.4 SSW 7 11 4 6 1028.3 1028.6 0.0
25/06:30pm 7.5 6.2 4.3 80 1.4 CALM 0 0 0 0 1028.0 1028.3 0.0
25/06:00pm 7.4 4.8 4.2 80 1.4 SSW 7 9 4 5 1027.7 1028.0 0.0
25/05:30pm 7.7 5.1 4.1 78 1.6 SW 7 9 4 5 1027.4 1027.7 0.0
25/05:00pm 8.2 4.8 4.2 76 1.7 SW 11 13 6 7 1027.4 1027.7 0.0
25/04:30pm 7.9 4.9 4.1 77 1.7 SW 9 11 5 6 1027.1 1027.4 0.0
25/04:00pm 9.0 5.7 4.4 73 2.0 SW 11 13 6 7 1027.1 1027.4 0.0
25/03:30pm 9.6 6.3 4.6 71 2.2 SW 11 15 6 8 1026.9 1027.2 0.0
25/03:00pm 10.2 7.3 4.6 68 2.5 SW 9 13 5 7 1026.7 1027.0 0.0
25/02:30pm 10.2 7.0 5.0 70 2.4 S 11 15 6 8 1026.4 1026.7 0.0
25/02:00pm 10.0 6.5 5.4 73 2.1 S 13 17 7 9 1026.2 1026.4 0.0
25/01:30pm 9.8 5.8 5.0 72 2.2 S 15 20 8 11 1026.4 1026.7 0.0
25/01:00pm 9.3 4.8 4.3 71 2.2 SSE 17 22 9 12 1026.7 1027.0 0.0
25/12:30pm 9.0 4.1 4.2 72 2.1 SSE 19 24 10 13 1027.0 1027.3 0.0
25/12:00pm 9.0 4.2 4.8 75 1.9 SSE 19 24 10 13 1027.3 1027.6 0.0
25/11:56am 8.9 3.9 4.7 75 1.9 SSE 20 28 11 15 1027.3 1027.6 0.0
25/11:30am 8.7 3.4 4.9 77 1.7 SSE 22 30 12 16 1028.0 1028.3 0.0
25/11:00am 8.1 3.0 4.3 77 1.7 SE 20 28 11 15 1028.6 1028.9 0.0
25/10:30am 7.5 2.1 4.5 81 1.3 SSE 22 30 12 16 1028.6 1028.9 0.0
25/10:00am 7.0 1.5 4.1 82 1.2 SE 22 32 12 17 1028.5 1028.8 0.0
25/09:30am 6.4 1.8 3.6 82 1.2 SE 17 24 9 13 1028.6 1028.9 0.0
25/09:00am 5.6 1.7 3.3 85 1.0 SSE 13 17 7 9 1028.3 1028.6 0.0
25/08:45am 5.6 1.7 3.4 86 0.9 SSE 13 17 7 9 1028.3 1028.6 0.0
25/08:30am 5.1 1.1 3.0 86 0.9 SSE 13 15 7 8 1027.9 1028.2 0.0
25/08:00am 4.5 0.5 2.7 88 0.7 SSE 13 19 7 10 1027.7 1028.0 0.0
25/07:30am 3.1 -1.1 1.5 89 0.6 SSE 13 15 7 8 1027.5 1027.8 0.0
25/07:00am 3.1 -0.7 1.6 90 0.6 SSE 11 15 6 8 1027.2 1027.5 0.0
25/06:30am 2.5 -1.8 0.9 89 0.6 SE 13 15 7 8 1026.8 1027.1 0.0
25/06:00am 3.5 -1.4 1.9 89 0.6 SSE 17 20 9 11 1026.6 1026.9 0.0
25/05:30am 3.1 -1.5 1.6 90 0.6 SE 15 19 8 10 1026.4 1026.7 0.0
25/05:00am 3.3 -1.3 1.7 89 0.6 SSE 15 17 8 9 1026.2 1026.4 0.0
25/04:30am 4.0 -0.6 1.7 85 0.9 SE 15 20 8 11 1026.1 1026.3 0.0
25/04:00am 5.0 0.1 2.2 82 1.1 SE 17 24 9 13 1026.2 1026.4 0.0
25/03:30am 4.8 -0.5 2.0 82 1.1 SE 19 24 10 13 1026.3 1026.6 0.0
25/03:00am 5.6 0.4 2.6 81 1.2 SE 19 24 10 13 1026.3 1026.6 0.0
25/02:30am 6.1 1.3 2.7 79 1.4 SE 17 24 9 13 1026.2 1026.4 0.0
25/02:00am 6.2 0.9 2.8 79 1.4 SE 20 26 11 14 1026.1 1026.3 0.0
25/01:30am 6.4 0.7 2.9 78 1.5 SE 22 33 12 18 1026.0 1026.2 0.0
25/01:00am 6.5 0.8 2.9 78 1.5 SE 22 30 12 16 1025.9 1026.1 0.0
25/12:30am 6.6 1.3 3.2 79 1.4 SSE 20 28 11 15 1026.1 1026.3 0.0
25/12:00am 6.4 -0.1 2.9 78 1.5 SSE 26 32 14 17 1026.0 1026.2 0.0
 
Date/Time
EST
Temp
°C
App
Temp
°C
Dew
Point
°C
Rel
Hum
%
Delta-T
°C
Wind Press
QNH
hPa
Press
MSL
hPa
Rain since
9am
mm
Dir  Spd
km/h
Gust
km/h
Spd
kts
Gust
kts
24/11:30pm 6.2 -0.7 2.8 79 1.4 SE 28 35 15 19 1025.9 1026.1 0.0
24/11:00pm 5.8 0.1 2.8 81 1.2 SSE 22 30 12 16 1025.8 1026.0 0.0
24/10:30pm 5.2 -0.9 2.6 83 1.1 SSE 24 28 13 15 1025.7 1025.9 0.0
24/10:00pm 5.0 -0.4 2.4 83 1.1 SSE 20 26 11 14 1025.8 1026.0 0.0
24/09:30pm 4.6 -0.5 2.8 88 0.7 SSE 19 24 10 13 1025.4 1025.6 0.0
24/09:00pm 4.0 -1.2 2.2 88 0.7 SSE 19 22 10 12 1025.2 1025.4 0.0
24/08:30pm 4.7 0.2 2.4 85 0.9 SSE 15 19 8 10 1025.2 1025.4 0.0
24/08:00pm 4.9 -0.3 2.6 85 0.9 SE 19 20 10 11 1024.9 1025.1 0.0
24/07:30pm 5.3 0.9 2.5 82 1.1 SE 15 19 8 10 1024.6 1024.8 0.0
24/07:00pm 6.0 0.9 3.0 81 1.2 SSE 19 26 10 14 1024.5 1024.7 0.0
24/06:30pm 6.0 1.6 2.8 80 1.3 S 15 20 8 11 1024.0 1024.3 0.0
24/06:00pm 6.8 1.5 3.2 78 1.5 SSE 20 26 11 14 1023.8 1024.1 0.0
24/05:30pm 7.6 2.0 3.3 74 1.8 SE 22 30 12 16 1023.6 1023.9 0.0
24/05:00pm 8.4 2.5 3.8 73 2.0 SE 24 33 13 18 1023.4 1023.7 0.0
24/04:30pm 9.2 1.8 4.0 70 2.3 SE 32 43 17 23 1023.2 1023.5 0.0
24/04:00pm 10.1 2.3 4.9 70 2.4 SSE 35 48 19 26 1023.0 1023.3 0.0
24/03:30pm 10.8 3.5 4.5 65 2.9 SSE 32 41 17 22 1022.8 1023.1 0.0
24/03:00pm 11.2 4.4 4.9 65 2.9 SSE 30 39 16 21 1022.6 1022.9 0.0
24/02:30pm 11.3 4.9 5.4 67 2.7 SSE 28 33 15 18 1022.5 1022.8 0.0
24/02:00pm 11.7 5.6 6.4 70 2.5 SSE 28 41 15 22 1022.4 1022.7 0.0
24/01:30pm 11.9 4.9 6.0 67 2.8 SE 32 43 17 23 1022.5 1022.8 0.0
24/01:00pm 11.3 5.4 6.0 70 2.5 SSE 26 35 14 19 1022.5 1022.8 0.0
24/12:30pm 10.7 5.4 6.6 76 1.9 SE 24 33 13 18 1022.6 1022.9 0.0
24/12:00pm 10.7 5.3 6.5 75 2.0 SE 24 33 13 18 1022.8 1023.1 0.0
24/11:30am 10.4 4.6 6.2 75 2.0 SE 26 37 14 20 1023.1 1023.4 0.0
24/11:00am 10.1 4.7 6.4 78 1.7 SE 24 32 13 17 1023.2 1023.5 0.0
24/10:30am 9.3 4.0 6.6 83 1.3 SE 24 30 13 16 1023.2 1023.5 0.0
24/10:00am 8.2 2.3 5.8 85 1.1 SE 26 32 14 17 1022.9 1023.2 0.0
24/09:30am 8.7 2.8 5.8 82 1.3 SE 26 35 14 19 1022.6 1022.9 0.0
24/09:00am 7.8 2.9 5.1 83 1.2 SE 20 28 11 15 1022.3 1022.6 0.0
24/08:30am 7.7 2.3 4.7 81 1.3 SE 22 30 12 16 1021.9 1022.2 0.0
24/08:00am 7.3 1.9 4.3 81 1.3 SE 22 32 12 17 1021.5 1021.8 0.0
24/07:30am 6.2 1.2 3.4 82 1.2 SSE 19 22 10 12 1021.1 1021.3 0.0
24/07:00am 5.2 0.7 2.4 82 1.1 SSE 15 19 8 10 1020.9 1021.1 0.0
24/06:30am 4.7 0.6 2.2 84 1.0 SSE 13 19 7 10 1020.5 1020.7 0.0
24/06:00am 4.4 0.7 2.3 86 0.8 S 11 13 6 7 1020.3 1020.5 0.0
24/05:30am 4.2 -0.3 1.9 85 0.9 S 15 20 8 11 1020.0 1020.2 0.0
24/05:00am 4.4 0.2 1.9 84 1.0 S 13 17 7 9 1019.6 1019.8 0.0
24/04:30am 4.5 0.8 2.2 85 0.9 S 11 13 6 7 1019.3 1019.5 0.0
24/04:00am 5.0 0.5 2.4 83 1.1 SSE 15 17 8 9 1019.1 1019.3 0.0
24/03:30am 5.0 0.6 2.9 86 0.9 S 15 20 8 11 1019.2 1019.4 0.0
24/03:00am 5.3 0.5 2.8 84 1.0 SSE 17 20 9 11 1019.4 1019.6 0.0
24/02:30am 5.5 0.3 2.5 81 1.2 SSE 19 22 10 12 1019.4 1019.6 0.0
24/02:00am 5.5 1.9 2.7 82 1.2 SSE 11 17 6 9 1019.4 1019.6 0.0
24/01:30am 5.4 0.2 2.6 82 1.2 SSE 19 20 10 11 1019.2 1019.4 0.0
24/01:00am 5.5 0.4 2.8 83 1.1 SE 19 20 10 11 1019.1 1019.3 0.0
24/12:30am 6.6 1.9 3.4 80 1.4 SSE 17 24 9 13 1018.9 1019.1 0.0
24/12:00am 7.4 2.9 4.2 80 1.4 SSE 17 19 9 10 1018.7 1018.9 0.0
 
Date/Time
EST
Temp
°C
App
Temp
°C
Dew
Point
°C
Rel
Hum
%
Delta-T
°C
Wind Press
QNH
hPa
Press
MSL
hPa
Rain since
9am
mm
Dir  Spd
km/h
Gust
km/h
Spd
kts
Gust
kts
23/11:30pm 7.0 2.9 4.5 84 1.1 SE 15 19 8 10 1018.4 1018.6 0.0
23/11:00pm 7.2 3.2 4.9 85 1.0 SSE 15 17 8 9 1018.3 1018.5 0.0
23/10:30pm 7.6 3.3 5.1 84 1.1 SSE 17 20 9 11 1017.9 1018.2 0.0
23/10:00pm 7.8 3.9 5.4 85 1.1 SSE 15 19 8 10 1018.0 1018.3 0.0
23/09:30pm 7.5 3.2 5.3 86 1.0 SSE 17 22 9 12 1017.8 1018.1 0.0
23/09:00pm 7.1 2.2 4.9 86 1.0 SSE 20 24 11 13 1017.4 1017.7 0.0
23/08:30pm 8.3 3.5 5.8 84 1.1 SSE 20 24 11 13 1017.1 1017.4 0.0
23/08:00pm 7.4 3.5 5.2 86 1.0 S 15 17 8 9 1016.7 1017.0 0.0
23/07:30pm 7.9 4.0 5.4 84 1.1 S 15 17 8 9 1016.5 1016.8 0.0
23/07:00pm 7.9 3.6 5.2 83 1.2 SSE 17 19 9 10 1016.2 1016.4 0.0
23/06:30pm 8.1 3.8 5.4 83 1.2 SSE 17 20 9 11 1016.0 1016.2 0.0
23/06:00pm 7.2 3.5 4.7 84 1.1 SSE 13 15 7 8 1015.5 1015.7 0.0
23/05:30pm 8.6 5.1 5.4 80 1.5 SSE 13 15 7 8 1015.3 1015.5 0.0
23/05:00pm 9.3 5.5 5.7 78 1.7 SSE 15 17 8 9 1015.1 1015.3 0.0
23/04:30pm 10.3 6.9 6.1 75 2.0 SE 13 17 7 9 1014.9 1015.1 0.0
23/04:00pm 11.7 8.4 6.6 71 2.4 SE 13 19 7 10 1015.0 1015.2 0.0
23/03:30pm 12.5 8.0 7.0 69 2.7 SE 20 28 11 15 1015.0 1015.2 0.0
23/03:00pm 12.2 6.9 6.9 70 2.6 SE 24 32 13 17 1015.0 1015.2 0.0
23/02:30pm 12.9 6.9 7.1 68 2.8 SE 28 37 15 20 1014.9 1015.1 0.0
23/02:00pm 13.2 7.3 7.4 68 2.9 SE 28 33 15 18 1015.0 1015.2 0.0
23/01:30pm 13.0 7.4 7.0 67 2.9 SE 26 33 14 18 1015.2 1015.4 0.0
23/01:00pm 12.9 7.7 7.1 68 2.8 SSE 24 30 13 16 1015.4 1015.6 0.0
23/12:30pm 12.5 7.6 7.0 69 2.7 SSE 22 28 12 15 1015.7 1015.9 0.0
23/12:00pm 12.2 7.8 7.3 72 2.4 SSE 20 28 11 15 1016.0 1016.2 0.0
23/11:30am 10.7 7.4 6.6 76 1.9 SSE 13 15 7 8 1016.1 1016.3 0.0
23/11:00am 8.6 4.7 5.5 81 1.4 S 15 19 8 10 1016.7 1017.0 0.0

Other formats

Comma delimited format used in spreadsheet applications
http://www.bom.gov.au/fwo/IDT60801/IDT60801.95966.axf

JavaScript Object Notation format (JSON) in row-major order
http://www.bom.gov.au/fwo/IDT60801/IDT60801.95966.json

Data quality

Most of these data are generated automatically and are frequently updated. Quality checks on data are not normally performed. It is possible for incorrect values to appear. Refer to information at About Latest Weather Observations and please check the disclaimer before using these data.